Time;durP1;ratioP1;P1;durP2;ratioP2;P2;SDS_P1;SDS_P2;PMS_P1;PMS_P2;Temp;Humidity;BMP_temperature;BMP_pressure;BME280_temperature;BME280_humidity;BME280_pressure;Samples;Min_cycle;Max_cycle;Signal;HPM_P1;HPM_P2
2022/10/18 00:01:35;;;;;;;3.53;2.97;;;19.40;99.90;;;;;;5014633;28;20030;-75
2022/10/18 00:04:01;;;;;;;5.40;3.38;;;19.40;99.90;;;;;;5014734;28;20483;-76
2022/10/18 00:06:27;;;;;;;4.00;3.13;;;19.40;99.90;;;;;;5029608;28;20452;-75
2022/10/18 00:08:52;;;;;;;5.93;3.70;;;19.30;99.90;;;;;;5029962;28;20133;-75
2022/10/18 00:11:18;;;;;;;4.90;3.40;;;19.30;99.90;;;;;;5014434;28;20088;-75
2022/10/18 00:13:44;;;;;;;4.25;3.65;;;19.20;99.90;;;;;;5029761;28;20554;-75
2022/10/18 00:16:15;;;;;;;6.82;3.75;;;19.20;99.90;;;;;;5004551;28;20492;-75
2022/10/18 00:18:41;;;;;;;7.13;4.53;;;19.20;99.90;;;;;;5014486;28;20077;-75
2022/10/18 00:21:11;;;;;;;3.65;3.00;;;19.20;99.90;;;;;;5014482;28;20121;-75
2022/10/18 00:23:37;;;;;;;7.45;3.60;;;19.30;99.90;;;;;;5029759;28;20137;-75
2022/10/18 00:26:02;;;;;;;8.05;3.92;;;19.30;99.90;;;;;;5014455;28;20022;-75
2022/10/18 00:28:28;;;;;;;5.40;3.33;;;19.30;99.90;;;;;;5014505;28;20032;-75
2022/10/18 00:30:54;;;;;;;6.53;3.83;;;19.30;99.90;;;;;;5014020;28;20108;-75
2022/10/18 00:33:20;;;;;;;4.28;3.85;;;19.30;99.90;;;;;;5013821;28;20105;-75
2022/10/18 00:35:45;;;;;;;6.30;3.90;;;19.30;99.90;;;;;;5014481;28;20484;-75
2022/10/18 00:38:11;;;;;;;8.30;3.75;;;19.30;99.90;;;;;;5013928;28;20030;-75
2022/10/18 00:40:37;;;;;;;5.22;4.05;;;19.20;99.90;;;;;;5014038;28;20033;-75
2022/10/18 00:43:02;;;;;;;5.47;4.07;;;19.30;99.90;;;;;;5013751;28;20092;-75
2022/10/18 00:45:28;;;;;;;7.05;3.85;;;19.30;99.90;;;;;;5013711;28;20049;-75
2022/10/18 00:48:00;;;;;;;7.28;4.13;;;19.30;99.90;;;;;;5013658;28;20526;-75
2022/10/18 00:50:28;;;;;;;6.90;3.97;;;19.30;99.90;;;;;;5014055;28;20053;-75
2022/10/18 00:53:00;;;;;;;6.05;3.97;;;19.30;99.90;;;;;;5013260;28;20084;-75
2022/10/18 00:55:27;;;;;;;6.43;4.40;;;19.30;99.90;;;;;;5013441;28;20030;-76
2022/10/18 00:57:54;;;;;;;5.43;4.28;;;19.30;99.90;;;;;;5013800;28;20033;-75
2022/10/18 01:00:20;;;;;;;4.65;3.53;;;19.20;99.90;;;;;;5013750;28;20044;-75
2022/10/18 01:02:47;;;;;;;5.57;3.63;;;19.20;99.90;;;;;;5013188;28;20029;-75
2022/10/18 01:05:17;;;;;;;9.52;3.95;;;19.20;99.90;;;;;;5012769;28;20026;-75
2022/10/18 01:07:54;;;;;;;6.13;3.70;;;19.20;99.90;;;;;;5013508;28;20530;-75
2022/10/18 01:10:26;;;;;;;6.53;3.75;;;19.20;99.90;;;;;;5028682;28;20022;-75
2022/10/18 01:13:10;;;;;;;7.20;3.83;;;19.10;99.90;;;;;;5012966;28;20029;-75
2022/10/18 01:16:00;;;;;;;6.22;3.65;;;19.10;99.90;;;;;;5003646;28;20026;-75
2022/10/18 01:18:37;;;;;;;5.40;3.35;;;19.20;99.90;;;;;;5028166;28;20026;-75
2022/10/18 01:21:18;;;;;;;7.25;3.95;;;19.10;99.90;;;;;;5013093;28;20037;-75
2022/10/18 01:24:21;;;;;;;10.65;4.97;;;19.10;99.90;;;;;;5013335;28;20050;-75
2022/10/18 01:27:03;;;;;;;6.53;3.95;;;19.10;99.90;;;;;;5013157;28;20030;-75
2022/10/18 01:30:00;;;;;;;5.25;3.83;;;19.20;99.90;;;;;;5013393;28;20053;-75
2022/10/18 01:32:38;;;;;;;6.07;3.33;;;19.10;99.90;;;;;;5028581;28;20030;-75
2022/10/18 01:35:10;;;;;;;8.40;3.88;;;19.00;99.90;;;;;;5012982;28;20091;-75
2022/10/18 01:37:37;;;;;;;6.15;3.97;;;19.10;99.90;;;;;;5013073;28;20030;-75
2022/10/18 01:40:05;;;;;;;5.70;3.70;;;19.00;99.90;;;;;;5013371;28;20073;-75
2022/10/18 01:42:31;;;;;;;5.72;3.25;;;19.10;99.90;;;;;;5013278;28;20109;-75
2022/10/18 01:44:57;;;;;;;7.85;3.70;;;19.10;99.90;;;;;;5012659;28;20028;-75
2022/10/18 01:47:24;;;;;;;6.18;3.70;;;19.00;99.90;;;;;;5012798;28;20037;-75
2022/10/18 01:49:58;;;;;;;6.65;3.45;;;18.90;99.90;;;;;;5006066;28;20050;-75
2022/10/18 01:52:23;;;;;;;9.70;3.65;;;19.00;99.90;;;;;;5012871;28;20040;-75
2022/10/18 01:54:49;;;;;;;6.05;3.30;;;19.10;99.90;;;;;;5012676;28;20491;-75
2022/10/18 01:57:38;;;;;;;4.25;3.40;;;19.10;99.90;;;;;;5012085;28;20033;-75
2022/10/18 02:00:15;;;;;;;6.03;3.25;;;19.00;99.90;;;;;;5012571;28;20075;-75
2022/10/18 02:02:41;;;;;;;4.30;3.38;;;18.90;99.90;;;;;;5012109;28;20038;-75
2022/10/18 02:05:28;;;;;;;5.22;3.17;;;18.90;99.90;;;;;;5012651;28;20040;-75
2022/10/18 02:08:12;;;;;;;4.68;3.10;;;19.00;99.90;;;;;;5013076;28;20036;-76
2022/10/18 02:10:42;;;;;;;5.22;3.05;;;19.00;99.90;;;;;;5012717;28;20026;-75
2022/10/18 02:13:12;;;;;;;5.03;3.10;;;19.00;99.90;;;;;;5027973;28;20030;-75
2022/10/18 02:15:41;;;;;;;7.47;3.60;;;19.00;99.90;;;;;;5012630;28;20022;-75
2022/10/18 02:18:17;;;;;;;8.05;3.42;;;19.00;99.90;;;;;;5012366;28;20079;-75
2022/10/18 02:20:44;;;;;;;3.97;2.67;;;19.00;99.90;;;;;;5027026;28;20109;-75
2022/10/18 02:23:12;;;;;;;5.65;3.08;;;19.00;99.90;;;;;;5011964;28;20026;-75
2022/10/18 02:25:38;;;;;;;6.38;3.35;;;19.00;99.90;;;;;;5026848;28;20033;-75
2022/10/18 02:28:04;;;;;;;5.90;3.47;;;19.00;99.90;;;;;;5010808;28;20034;-75
2022/10/18 02:30:39;;;;;;;8.05;3.45;;;19.00;99.90;;;;;;5012382;28;20065;-75
2022/10/18 02:33:26;;;;;;;7.25;3.33;;;19.00;99.90;;;;;;5027398;28;20030;-75
2022/10/18 02:35:59;;;;;;;6.63;3.58;;;19.00;99.90;;;;;;4999952;28;20519;-75
2022/10/18 02:38:27;;;;;;;6.75;3.63;;;19.00;99.90;;;;;;5012260;28;20100;-76
2022/10/18 02:40:53;;;;;;;7.95;3.85;;;19.00;99.90;;;;;;5012151;28;20045;-75
2022/10/18 02:43:18;;;;;;;7.18;3.90;;;19.10;99.90;;;;;;5011819;28;20519;-75
2022/10/18 02:45:44;;;;;;;10.93;3.80;;;19.00;99.90;;;;;;5012272;28;20030;-75
2022/10/18 02:48:10;;;;;;;6.35;3.50;;;19.00;99.90;;;;;;5011682;28;20018;-75
2022/10/18 02:50:35;;;;;;;7.07;3.85;;;18.90;99.90;;;;;;5011712;28;20514;-75
2022/10/18 02:53:01;;;;;;;6.40;3.47;;;18.90;99.90;;;;;;5011772;28;20553;-76
2022/10/18 02:55:26;;;;;;;7.93;3.80;;;18.80;99.90;;;;;;5027044;28;20558;-75
2022/10/18 02:57:52;;;;;;;9.35;3.20;;;18.90;99.90;;;;;;5011634;28;20057;-75
2022/10/18 03:00:18;;;;;;;5.78;3.28;;;18.90;99.90;;;;;;5011876;28;20072;-75
2022/10/18 03:02:43;;;;;;;6.65;3.13;;;18.90;99.90;;;;;;5011866;28;20582;-75
2022/10/18 03:05:09;;;;;;;6.03;3.10;;;18.90;99.90;;;;;;5011908;28;20087;-75
2022/10/18 03:07:35;;;;;;;6.93;3.35;;;18.90;99.90;;;;;;5011526;28;20113;-75
2022/10/18 03:10:00;;;;;;;6.05;3.33;;;18.90;99.90;;;;;;5011619;28;20537;-75
2022/10/18 03:12:26;;;;;;;6.70;3.30;;;18.90;99.90;;;;;;5011333;28;20545;-75
2022/10/18 03:14:52;;;;;;;8.43;3.45;;;18.80;99.90;;;;;;5011734;28;20562;-75
2022/10/18 03:17:17;;;;;;;6.68;3.10;;;18.80;99.90;;;;;;5011115;28;20521;-75
2022/10/18 03:19:43;;;;;;;4.22;3.22;;;18.90;99.90;;;;;;5011623;28;20032;-75
2022/10/18 03:22:09;;;;;;;5.53;3.50;;;18.90;99.90;;;;;;5026548;28;20410;-75
2022/10/18 03:24:34;;;;;;;5.70;3.15;;;18.90;99.90;;;;;;5011489;28;20112;-75
2022/10/18 03:27:00;;;;;;;4.78;3.10;;;18.80;99.90;;;;;;5010908;28;20495;-75
2022/10/18 03:29:26;;;;;;;5.20;3.42;;;18.90;99.90;;;;;;5011087;28;20530;-75
2022/10/18 03:31:51;;;;;;;5.13;3.50;;;18.80;99.90;;;;;;5026805;28;20030;-75
2022/10/18 03:34:17;;;;;;;3.30;3.00;;;18.70;99.90;;;;;;5011258;28;20365;-75
2022/10/18 03:36:43;;;;;;;5.00;3.17;;;18.60;99.90;;;;;;5009792;28;20018;-75
2022/10/18 03:39:10;;;;;;;4.47;3.08;;;18.60;99.90;;;;;;5011622;28;20026;-75
2022/10/18 03:41:36;;;;;;;5.80;3.42;;;18.60;99.90;;;;;;5011061;28;20101;-75
2022/10/18 03:44:02;;;;;;;5.07;3.40;;;18.60;99.90;;;;;;5026441;28;20125;-75
2022/10/18 03:46:28;;;;;;;3.22;2.72;;;18.60;99.90;;;;;;5011302;28;20029;-75
2022/10/18 03:48:54;;;;;;;4.68;3.10;;;18.70;99.90;;;;;;5011242;28;20033;-75
2022/10/18 03:51:19;;;;;;;4.47;3.20;;;18.70;99.90;;;;;;5009425;28;20033;-75
2022/10/18 03:53:45;;;;;;;4.28;2.88;;;18.70;99.90;;;;;;5011419;28;20501;-75
2022/10/18 03:56:11;;;;;;;5.35;3.30;;;18.70;99.90;;;;;;5010844;28;20048;-75
2022/10/18 03:58:36;;;;;;;4.18;2.85;;;18.80;99.90;;;;;;5011246;28;20037;-75
2022/10/18 04:01:02;;;;;;;6.15;3.50;;;18.80;99.90;;;;;;5011231;28;20091;-75
2022/10/18 04:03:28;;;;;;;5.88;3.20;;;18.80;99.90;;;;;;5010958;28;20025;-75
2022/10/18 04:05:53;;;;;;;5.03;3.03;;;18.80;99.90;;;;;;5011221;28;20496;-75
2022/10/18 04:08:19;;;;;;;5.10;3.03;;;18.70;99.90;;;;;;5011239;28;20033;-75
2022/10/18 04:10:45;;;;;;;6.93;3.50;;;18.60;99.90;;;;;;5010975;28;20064;-75
2022/10/18 04:13:11;;;;;;;3.97;3.00;;;18.70;99.90;;;;;;5011170;28;20101;-75
2022/10/18 04:15:37;;;;;;;5.57;3.15;;;18.70;99.90;;;;;;5009387;28;20026;-75
2022/10/18 04:18:02;;;;;;;4.15;3.00;;;18.70;99.90;;;;;;5009631;28;20029;-75
2022/10/18 04:20:28;;;;;;;4.28;3.05;;;18.80;99.90;;;;;;5009456;28;20033;-75
2022/10/18 04:22:56;;;;;;;5.53;2.95;;;18.80;99.90;;;;;;5026020;28;20037;-75
2022/10/18 04:25:22;;;;;;;4.15;3.20;;;18.80;99.90;;;;;;5025880;28;20129;-75
2022/10/18 04:27:48;;;;;;;5.20;3.78;;;18.70;99.90;;;;;;5026041;28;20113;-75
2022/10/18 04:30:13;;;;;;;6.53;3.47;;;18.80;99.90;;;;;;5010726;28;20491;-75
2022/10/18 04:32:39;;;;;;;4.82;2.92;;;18.70;99.90;;;;;;5010875;28;20040;-75
2022/10/18 04:35:06;;;;;;;4.85;3.10;;;18.80;99.90;;;;;;5025667;28;20116;-75
2022/10/18 04:37:32;;;;;;;6.75;3.00;;;18.80;99.90;;;;;;5010914;28;20117;-75
2022/10/18 04:39:58;;;;;;;6.18;3.40;;;18.80;99.90;;;;;;5011883;28;20018;-75
2022/10/18 04:42:24;;;;;;;5.13;3.03;;;18.80;99.90;;;;;;5014127;28;20107;-75
2022/10/18 04:44:50;;;;;;;7.53;3.38;;;18.80;99.90;;;;;;5014548;28;20037;-75
2022/10/18 04:47:15;;;;;;;4.47;3.20;;;18.80;99.90;;;;;;5014435;28;20044;-75
2022/10/18 04:49:41;;;;;;;5.15;3.20;;;18.80;99.90;;;;;;5014465;28;20026;-75
2022/10/18 04:52:07;;;;;;;4.38;3.28;;;18.80;99.90;;;;;;5013858;28;20095;-75
2022/10/18 04:54:33;;;;;;;5.10;3.80;;;18.90;99.90;;;;;;5013850;28;20113;-75
2022/10/18 04:56:59;;;;;;;5.40;3.17;;;18.90;99.90;;;;;;5029268;28;20038;-75
2022/10/18 04:59:24;;;;;;;6.85;3.63;;;18.90;99.90;;;;;;5014366;28;20029;-75
2022/10/18 05:01:50;;;;;;;4.38;3.22;;;18.80;99.90;;;;;;5014294;28;20026;-76
2022/10/18 05:04:16;;;;;;;8.60;3.95;;;18.80;99.90;;;;;;5029143;28;20029;-75
2022/10/18 05:06:41;;;;;;;6.93;4.03;;;18.80;99.90;;;;;;5013662;28;20105;-75
2022/10/18 05:09:07;;;;;;;5.10;3.35;;;18.80;99.90;;;;;;5013999;28;20433;-76
2022/10/18 05:11:33;;;;;;;5.80;4.00;;;18.80;99.90;;;;;;5013966;28;20056;-75
2022/10/18 05:13:58;;;;;;;5.00;3.75;;;18.80;99.90;;;;;;5013718;28;20029;-75
2022/10/18 05:16:24;;;;;;;6.85;4.13;;;18.80;99.90;;;;;;5013430;28;20030;-76
2022/10/18 05:18:50;;;;;;;6.30;3.60;;;18.80;99.90;;;;;;5013721;28;20101;-75
2022/10/18 05:21:16;;;;;;;6.32;3.83;;;18.80;99.90;;;;;;5013706;28;20113;-75
2022/10/18 05:23:41;;;;;;;7.60;3.65;;;18.90;99.90;;;;;;5013135;28;20546;-75
2022/10/18 05:26:07;;;;;;;7.03;3.92;;;18.70;99.90;;;;;;5012251;28;20516;-75
2022/10/18 05:28:34;;;;;;;6.72;4.00;;;18.80;99.90;;;;;;5013483;28;20571;-75
2022/10/18 05:31:01;;;;;;;6.93;3.72;;;18.90;99.90;;;;;;5013500;28;20033;-75
2022/10/18 05:33:27;;;;;;;5.85;3.97;;;18.80;99.90;;;;;;5013429;28;20033;-75
2022/10/18 05:35:52;;;;;;;7.43;4.45;;;18.80;99.90;;;;;;5013240;28;20404;-75
2022/10/18 05:38:18;;;;;;;7.93;4.40;;;18.70;99.90;;;;;;5013171;28;20376;-75
2022/10/18 05:40:44;;;;;;;6.38;4.00;;;18.70;99.90;;;;;;5013690;28;20030;-76
2022/10/18 05:43:09;;;;;;;8.82;3.75;;;18.80;99.90;;;;;;5013278;28;20174;-76
2022/10/18 05:45:35;;;;;;;6.78;4.45;;;18.80;99.90;;;;;;5013585;28;20300;-76
2022/10/18 05:48:01;;;;;;;8.35;3.95;;;18.80;99.90;;;;;;5013329;28;20026;-76
2022/10/18 05:50:27;;;;;;;9.05;4.35;;;18.80;99.90;;;;;;5013026;28;20500;-77
2022/10/18 05:52:56;;;;;;;9.98;4.55;;;18.80;99.90;;;;;;5027676;28;20117;-76
2022/10/18 05:55:22;;;;;;;6.28;4.03;;;18.80;99.90;;;;;;5013153;28;20499;-75
2022/10/18 05:57:51;;;;;;;7.80;4.72;;;18.90;99.90;;;;;;5013167;28;20026;-75
2022/10/18 06:00:17;;;;;;;7.68;4.22;;;18.90;99.90;;;;;;5028104;28;20071;-75
2022/10/18 06:02:43;;;;;;;7.43;4.85;;;18.90;99.90;;;;;;5012731;28;20031;-75
2022/10/18 06:05:09;;;;;;;11.32;4.57;;;18.80;99.90;;;;;;5027610;28;20036;-76
2022/10/18 06:07:35;;;;;;;5.68;4.28;;;18.80;99.90;;;;;;5012914;28;20546;-76
2022/10/18 06:10:00;;;;;;;6.10;3.80;;;18.80;99.90;;;;;;5027943;28;20037;-76
2022/10/18 06:12:26;;;;;;;7.70;4.50;;;18.90;99.90;;;;;;5027887;28;20022;-75
2022/10/18 06:14:52;;;;;;;5.00;4.15;;;18.80;99.90;;;;;;5012518;28;20496;-76
2022/10/18 06:17:17;;;;;;;7.28;4.72;;;18.80;99.90;;;;;;5012584;28;20022;-75
2022/10/18 06:19:43;;;;;;;6.03;4.05;;;18.80;99.90;;;;;;5012358;28;20109;-76
2022/10/18 06:22:10;;;;;;;8.18;4.07;;;18.80;99.90;;;;;;5012498;28;20025;-76
2022/10/18 06:24:36;;;;;;;7.80;3.90;;;18.80;99.90;;;;;;5011045;28;20045;-76
2022/10/18 06:27:07;;;;;;;8.63;4.15;;;18.80;99.90;;;;;;5012531;28;20026;-75
2022/10/18 06:29:37;;;;;;;5.55;4.03;;;18.80;99.90;;;;;;5012259;28;20026;-75
2022/10/18 06:32:04;;;;;;;8.73;4.00;;;18.90;99.90;;;;;;5010989;28;20037;-75
2022/10/18 06:34:30;;;;;;;7.18;4.03;;;18.90;99.90;;;;;;5024893;28;20034;-75
2022/10/18 06:36:55;;;;;;;5.72;4.00;;;18.90;99.90;;;;;;5010245;28;20032;-75
2022/10/18 06:39:21;;;;;;;11.50;4.75;;;18.90;99.90;;;;;;5011042;28;20106;-75
2022/10/18 06:41:47;;;;;;;6.57;4.25;;;18.90;99.90;;;;;;5007361;28;20068;-75
2022/10/18 06:44:13;;;;;;;6.07;3.85;;;18.90;99.90;;;;;;5011469;28;20384;-75
2022/10/18 06:46:43;;;;;;;7.85;4.78;;;19.00;99.90;;;;;;5008432;28;20060;-75
2022/10/18 06:49:10;;;;;;;5.95;4.20;;;19.10;99.90;;;;;;4998725;28;20026;-75
2022/10/18 06:51:36;;;;;;;13.35;4.95;;;19.10;99.90;;;;;;5007678;28;20021;-76
2022/10/18 06:54:02;;;;;;;10.35;5.65;;;19.10;99.90;;;;;;5009716;28;20038;-75
2022/10/18 06:56:28;;;;;;;6.75;5.03;;;19.10;99.90;;;;;;5011394;28;20093;-75
2022/10/18 06:58:54;;;;;;;7.40;4.82;;;19.20;99.90;;;;;;5025392;28;20029;-75
2022/10/18 07:01:19;;;;;;;6.55;4.40;;;19.30;99.90;;;;;;5011019;28;20022;-75
2022/10/18 07:03:47;;;;;;;6.20;4.63;;;19.30;99.90;;;;;;5005027;28;20407;-76
2022/10/18 07:06:16;;;;;;;6.50;4.32;;;19.30;99.90;;;;;;5011022;28;20109;-76
2022/10/18 07:08:42;;;;;;;6.40;4.18;;;19.40;99.90;;;;;;5004078;28;20389;-75
2022/10/18 07:11:14;;;;;;;6.22;4.18;;;19.60;99.90;;;;;;5008877;28;20033;-75
2022/10/18 07:13:39;;;;;;;5.13;4.20;;;20.90;99.90;;;;;;5008835;28;20033;-76
2022/10/18 07:16:07;;;;;;;5.40;3.70;;;21.30;99.90;;;;;;5008311;28;20033;-76
2022/10/18 07:18:34;;;;;;;8.90;4.53;;;20.80;99.90;;;;;;5009670;28;20133;-75
2022/10/18 07:21:08;;;;;;;9.20;4.65;;;20.40;99.90;;;;;;5024759;28;20030;-75
2022/10/18 07:23:36;;;;;;;9.60;4.80;;;20.30;99.90;;;;;;5008911;28;20037;-75
2022/10/18 07:26:09;;;;;;;8.50;4.28;;;20.60;99.90;;;;;;5009793;28;20022;-75
2022/10/18 07:28:35;;;;;;;13.35;5.60;;;20.40;99.90;;;;;;4997700;28;20113;-75
2022/10/18 07:31:04;;;;;;;9.63;5.57;;;20.20;99.90;;;;;;5009511;28;20156;-75
2022/10/18 07:33:30;;;;;;;15.05;5.10;;;20.20;99.90;;;;;;5025207;28;20025;-74
2022/10/18 07:35:59;;;;;;;11.25;5.40;;;20.20;99.90;;;;;;5009200;28;20026;-76
2022/10/18 07:38:25;;;;;;;9.00;4.78;;;20.20;99.90;;;;;;5010011;28;20026;-76
2022/10/18 07:40:56;;;;;;;9.13;4.85;;;20.20;99.90;;;;;;5008610;28;20033;-76
2022/10/18 07:43:22;;;;;;;7.38;4.68;;;20.30;99.90;;;;;;5009362;28;20034;-76
2022/10/18 07:45:56;;;;;;;8.60;4.53;;;20.30;99.90;;;;;;5009222;28;20033;-74
2022/10/18 07:48:22;;;;;;;7.93;4.38;;;20.40;99.90;;;;;;5022134;28;20072;-77
2022/10/18 07:50:48;;;;;;;9.43;4.90;;;20.50;99.90;;;;;;5002790;28;20029;-77
2022/10/18 07:53:13;;;;;;;8.05;4.43;;;20.50;99.90;;;;;;5009630;28;20026;-77
2022/10/18 07:55:39;;;;;;;7.57;4.50;;;21.10;99.90;;;;;;5024217;28;20120;-77
2022/10/18 07:58:05;;;;;;;6.60;4.47;;;22.30;99.90;;;;;;5008581;28;20030;-77
2022/10/18 08:00:30;;;;;;;7.95;4.55;;;21.50;99.90;;;;;;5009240;28;20021;-75
2022/10/18 08:02:57;;;;;;;7.15;4.50;;;21.50;99.90;;;;;;5009292;28;20081;-74
2022/10/18 08:05:24;;;;;;;11.68;4.57;;;21.30;99.90;;;;;;5009267;28;20100;-75
2022/10/18 08:07:50;;;;;;;7.68;4.80;;;21.60;99.90;;;;;;5009945;28;20053;-75
2022/10/18 08:10:16;;;;;;;8.50;4.43;;;22.40;99.90;;;;;;5008936;28;20066;-75
2022/10/18 08:12:41;;;;;;;6.72;4.13;;;22.70;99.90;;;;;;5009703;28;20033;-75
2022/10/18 08:15:07;;;;;;;6.22;4.40;;;22.40;99.90;;;;;;5010710;28;20022;-75
2022/10/18 08:17:33;;;;;;;5.25;4.43;;;23.00;99.90;;;;;;5013181;28;20463;-75
2022/10/18 08:19:59;;;;;;;11.02;4.93;;;24.10;99.90;;;;;;5011862;28;20093;-75
2022/10/18 08:22:25;;;;;;;9.50;4.82;;;26.00;99.90;;;;;;5013277;28;20491;-75
2022/10/18 08:24:50;;;;;;;10.98;4.65;;;27.10;99.90;;;;;;5028533;28;20065;-76
2022/10/18 08:27:16;;;;;;;9.75;4.68;;;28.30;99.90;;;;;;5012752;28;20038;-75
2022/10/18 08:29:42;;;;;;;8.80;4.43;;;28.40;99.90;;;;;;5012448;28;20403;-76
2022/10/18 08:32:08;;;;;;;11.80;5.20;;;29.00;99.90;;;;;;5026597;28;20475;-76
2022/10/18 08:34:34;;;;;;;12.38;4.85;;;28.10;99.90;;;;;;5012980;28;20431;-76
2022/10/18 08:37:00;;;;;;;9.52;4.88;;;27.60;99.90;;;;;;5002875;28;20475;-75
2022/10/18 08:39:26;;;;;;;9.40;5.00;;;27.50;99.90;;;;;;5012081;28;20487;-75
2022/10/18 08:42:16;;;;;;;9.30;3.97;;;26.20;99.90;;;;;;5011537;28;20110;-74
2022/10/18 08:44:47;;;;;;;7.07;4.45;;;25.50;99.90;;;;;;5012514;28;20026;-75
2022/10/18 08:47:37;;;;;;;7.45;4.25;;;24.90;99.90;;;;;;5011912;28;20036;-75
2022/10/18 08:50:06;;;;;;;8.73;4.17;;;25.30;99.90;;;;;;5006715;28;20022;-76
2022/10/18 08:52:52;;;;;;;13.55;4.55;;;24.20;99.90;;;;;;5008331;28;20026;-75
2022/10/18 08:55:27;;;;;;;11.35;5.90;;;23.50;99.90;;;;;;5001441;28;20038;-76
2022/10/18 08:57:55;;;;;;;11.32;5.35;;;24.30;99.90;;;;;;5012233;28;20085;-76
2022/10/18 09:00:24;;;;;;;11.15;4.80;;;23.80;99.90;;;;;;5012831;28;20105;-75
2022/10/18 09:03:24;;;;;;;9.52;4.47;;;23.70;99.90;;;;;;5012017;28;20018;-75
2022/10/18 09:06:03;;;;;;;8.48;5.00;;;23.90;99.90;;;;;;5012506;28;20018;-75
2022/10/18 09:08:56;;;;;;;12.15;4.40;;;23.60;99.90;;;;;;5012425;28;20022;-75
2022/10/18 09:11:54;;;;;;;13.50;4.97;;;23.50;99.90;;;;;;4998931;28;20146;-75
2022/10/18 09:14:31;;;;;;;10.65;5.28;;;23.60;99.90;;;;;;5025121;28;20072;-75
2022/10/18 09:16:57;;;;;;;9.02;5.38;;;23.50;99.90;;;;;;5004407;28;20034;-75
2022/10/18 09:19:41;;;;;;;14.68;4.95;;;23.50;99.90;;;;;;5011468;28;20028;-77
2022/10/18 09:22:16;;;;;;;9.48;4.80;;;23.60;99.90;;;;;;5011493;28;20030;-77
2022/10/18 09:24:48;;;;;;;9.38;4.75;;;23.80;99.90;;;;;;5012736;28;20042;-75
2022/10/18 09:27:17;;;;;;;9.50;4.75;;;23.80;99.90;;;;;;5009975;28;20112;-75
2022/10/18 09:30:02;;;;;;;10.23;4.90;;;24.00;99.90;;;;;;5011644;28;20186;-76
2022/10/18 09:32:50;;;;;;;11.93;4.93;;;23.90;99.90;;;;;;5006433;28;20045;-75
2022/10/18 09:35:28;;;;;;;9.75;4.75;;;24.00;99.90;;;;;;5012341;28;20029;-74
2022/10/18 09:38:02;;;;;;;8.13;4.85;;;24.10;99.90;;;;;;5012254;28;20113;-76
2022/10/18 09:40:31;;;;;;;11.43;4.88;;;24.10;99.90;;;;;;5012271;28;20022;-76
2022/10/18 09:43:38;;;;;;;10.45;4.72;;;24.10;99.90;;;;;;5010863;28;20093;-76
2022/10/18 09:46:04;;;;;;;7.90;4.78;;;23.90;99.90;;;;;;4949956;29;20136;-75
2022/10/18 09:48:59;;;;;;;10.48;4.93;;;23.90;99.90;;;;;;4933400;29;20050;-75
2022/10/18 09:51:29;;;;;;;10.65;4.85;;;23.80;99.90;;;;;;4920564;29;20090;-74
2022/10/18 09:54:29;;;;;;;13.63;4.73;;;23.90;99.90;;;;;;4941883;28;20254;-76
2022/10/18 09:57:00;;;;;;;20.92;5.22;;;23.90;99.90;;;;;;4936187;29;20287;-74
2022/10/18 09:59:32;;;;;;;17.58;5.47;;;23.90;99.90;;;;;;4934508;29;20023;-75
2022/10/18 10:01:58;;;;;;;12.45;5.53;;;24.10;99.90;;;;;;4941383;29;20100;-75
2022/10/18 10:04:24;;;;;;;14.63;5.97;;;24.30;99.90;;;;;;4950251;29;20529;-75
2022/10/18 10:06:52;;;;;;;9.57;4.50;;;24.40;99.90;;;;;;4949922;29;20556;-75
2022/10/18 10:09:26;;;;;;;11.60;5.10;;;24.40;99.90;;;;;;4951365;29;20039;-75
2022/10/18 10:11:54;;;;;;;11.43;4.70;;;24.50;99.90;;;;;;4949029;29;20046;-75
2022/10/18 10:14:29;;;;;;;10.82;4.80;;;24.60;99.90;;;;;;4947004;29;20062;-75
2022/10/18 10:17:04;;;;;;;16.63;5.85;;;24.50;99.90;;;;;;4926729;29;20054;-75
2022/10/18 10:19:30;;;;;;;15.45;5.32;;;24.50;99.90;;;;;;4950615;29;20045;-75
2022/10/18 10:22:05;;;;;;;8.55;4.50;;;24.50;99.90;;;;;;4962421;28;20515;-74
2022/10/18 10:24:40;;;;;;;9.77;5.10;;;24.60;99.90;;;;;;4999834;28;20049;-77
2022/10/18 10:27:14;;;;;;;13.93;4.75;;;24.60;99.90;;;;;;5010613;28;20061;-75
2022/10/18 10:29:54;;;;;;;12.40;4.95;;;24.40;99.90;;;;;;5010982;28;20040;-74
2022/10/18 10:32:21;;;;;;;15.90;5.50;;;24.40;99.90;;;;;;5008250;28;20514;-74
2022/10/18 10:34:47;;;;;;;10.88;4.90;;;24.60;99.90;;;;;;5026049;28;20495;-74
2022/10/18 10:37:26;;;;;;;13.38;5.38;;;24.60;99.90;;;;;;5010604;28;20056;-75
2022/10/18 10:40:14;;;;;;;9.95;5.00;;;24.60;99.90;;;;;;5009299;28;20029;-75
2022/10/18 10:43:13;;;;;;;10.75;4.40;;;24.60;99.90;;;;;;5003948;28;20633;-75
2022/10/18 10:46:01;;;;;;;8.77;5.22;;;24.60;99.90;;;;;;5001294;28;20292;-75
2022/10/18 10:48:30;;;;;;;11.13;4.95;;;24.70;99.90;;;;;;5009111;28;20038;-77
2022/10/18 10:51:06;;;;;;;12.98;5.30;;;24.60;99.90;;;;;;5004453;28;20036;-74
2022/10/18 10:53:50;;;;;;;8.75;5.00;;;24.70;99.90;;;;;;5008969;28;20108;-77
2022/10/18 10:56:34;;;;;;;11.63;5.10;;;25.00;99.90;;;;;;5011038;28;20022;-74
2022/10/18 10:59:09;;;;;;;11.20;5.60;;;24.80;99.90;;;;;;5003195;28;20034;-74
2022/10/18 11:01:35;;;;;;;11.00;5.10;;;24.70;99.90;;;;;;5009656;28;20034;-74
2022/10/18 11:04:27;;;;;;;14.50;5.45;;;24.60;99.90;;;;;;5009521;28;20515;-74
2022/10/18 11:06:55;;;;;;;10.38;5.35;;;24.60;99.90;;;;;;5008305;28;20025;-74
2022/10/18 11:09:29;;;;;;;12.73;4.90;;;24.80;99.90;;;;;;5009378;28;20029;-75
2022/10/18 11:12:23;;;;;;;10.30;4.50;;;24.90;99.90;;;;;;5009788;28;20026;-74
2022/10/18 11:14:59;;;;;;;13.52;5.82;;;24.90;99.90;;;;;;5000661;28;20045;-74
2022/10/18 11:17:38;;;;;;;17.25;5.72;;;24.90;99.90;;;;;;5007025;28;20053;-74
2022/10/18 11:20:10;;;;;;;12.93;5.35;;;24.90;99.90;;;;;;5011206;28;20037;-74
2022/10/18 11:22:58;;;;;;;16.08;5.22;;;25.10;99.90;;;;;;5010725;28;20048;-74
2022/10/18 11:25:39;;;;;;;12.23;5.40;;;25.00;99.90;;;;;;5011041;28;20492;-74
2022/10/18 11:28:13;;;;;;;12.63;6.00;;;25.00;99.90;;;;;;5025668;28;20099;-74
2022/10/18 11:30:47;;;;;;;14.52;5.35;;;24.90;99.90;;;;;;5010246;28;20036;-74
2022/10/18 11:33:23;;;;;;;12.50;4.97;;;25.00;99.90;;;;;;5025379;28;20038;-74
2022/10/18 11:36:11;;;;;;;14.30;5.28;;;25.10;99.90;;;;;;5010772;28;20029;-74
2022/10/18 11:38:50;;;;;;;11.57;4.57;;;25.10;99.90;;;;;;5009506;28;20218;-74
2022/10/18 11:41:23;;;;;;;11.55;5.50;;;25.20;99.90;;;;;;5017968;28;20558;-74
2022/10/18 11:43:55;;;;;;;14.55;6.18;;;25.10;99.90;;;;;;5010261;28;20025;-75
2022/10/18 11:46:40;;;;;;;15.88;5.63;;;25.10;99.90;;;;;;5009616;28;20080;-74
2022/10/18 11:49:43;;;;;;;13.02;5.38;;;25.20;99.90;;;;;;5009122;28;20029;-75
2022/10/18 11:52:30;;;;;;;12.40;5.35;;;25.40;99.90;;;;;;4996700;28;20034;-74
2022/10/18 11:55:23;;;;;;;9.63;5.47;;;25.30;99.90;;;;;;5024995;28;20036;-75
2022/10/18 11:58:14;;;;;;;9.52;4.88;;;25.20;99.90;;;;;;5010076;28;20026;-74
2022/10/18 12:01:04;;;;;;;13.05;5.53;;;25.40;99.90;;;;;;5010406;28;20526;-74
2022/10/18 12:04:00;;;;;;;11.32;5.22;;;25.50;99.90;;;;;;5006513;28;20026;-75
2022/10/18 12:06:33;;;;;;;9.32;5.25;;;25.30;99.90;;;;;;4997891;28;20030;-75
2022/10/18 12:09:26;;;;;;;10.73;4.78;;;25.30;99.90;;;;;;5024542;28;20088;-75
2022/10/18 12:12:15;;;;;;;11.13;5.15;;;25.30;99.90;;;;;;5000692;28;20499;-75
2022/10/18 12:14:44;;;;;;;9.50;5.07;;;25.30;99.90;;;;;;5003725;28;20030;-75
2022/10/18 12:17:38;;;;;;;12.63;5.03;;;25.30;99.90;;;;;;5003336;28;20069;-75
2022/10/18 12:20:22;;;;;;;6.70;4.57;;;25.30;99.90;;;;;;5000010;28;20038;-75
2022/10/18 12:23:04;;;;;;;12.18;5.13;;;25.30;99.90;;;;;;5008232;28;20030;-75
2022/10/18 12:25:34;;;;;;;10.27;5.63;;;25.30;99.90;;;;;;5009348;28;20038;-75
2022/10/18 12:28:18;;;;;;;16.02;5.38;;;25.40;99.90;;;;;;5009070;28;20040;-74
2022/10/18 12:31:19;;;;;;;10.10;4.78;;;25.50;99.90;;;;;;5008887;28;20108;-74
2022/10/18 12:33:49;;;;;;;13.25;5.07;;;25.40;99.90;;;;;;4964370;28;20233;-75
2022/10/18 12:36:27;;;;;;;10.07;4.55;;;25.30;99.90;;;;;;4967731;28;20070;-75
2022/10/18 12:38:59;;;;;;;12.82;5.10;;;25.30;99.90;;;;;;4968325;28;20127;-74
2022/10/18 12:41:29;;;;;;;15.55;5.25;;;25.40;99.90;;;;;;4967464;28;20023;-74
2022/10/18 12:44:03;;;;;;;8.77;4.78;;;25.30;99.90;;;;;;4966607;28;20046;-75
2022/10/18 12:46:49;;;;;;;11.13;5.15;;;25.20;99.90;;;;;;4967141;28;20058;-75
2022/10/18 12:49:27;;;;;;;10.60;5.43;;;25.20;99.90;;;;;;4971950;28;20034;-74
2022/10/18 12:51:58;;;;;;;9.57;4.40;;;25.20;99.90;;;;;;4957879;28;20203;-74
2022/10/18 12:54:35;;;;;;;7.68;4.53;;;25.20;99.90;;;;;;4967760;28;20070;-74
2022/10/18 12:57:03;;;;;;;10.48;5.13;;;25.30;99.90;;;;;;4967689;28;20049;-74
2022/10/18 12:59:28;;;;;;;13.75;5.38;;;25.20;99.90;;;;;;4967551;28;20109;-74
2022/10/18 13:01:54;;;;;;;9.23;4.97;;;25.20;99.90;;;;;;4968285;28;20122;-74
2022/10/18 13:04:32;;;;;;;12.35;5.50;;;25.30;99.90;;;;;;4971732;28;20054;-73